Nyesville, Pennsylvania
Current Conditions -  °F | °C
As of 7:53 AM on Friday 24 Oct 2014 (Local Time) from KHGR Reporting Station
Clear Clear  
Wind Chill: 50°   Ceiling: Unl
Heat Index: 50°   Visibility: 10mi
Dew Point: 41°   Wind: 10mph
Humidity: 71%   Direction: 310°NW
Pressure: 29.99"   Gusts: NA
Location:  39.9438°N, 77.6827°W
Report Text: KHGR 241153Z 31009KT 10SM CLR 10/05 A2999 RMK AO2 SLP164 T01000050 10117 20100 50005
Loading
Personal Weather Stations






























Interactive Weather Map
Tropical Storm Tracking
New forecast layout! Learn more

10-Day Weather Forecast

Advertisements
Track Severe Weather on mobile